createdAt,value
2022-07-29T00:01:02.030Z,19.80
2022-07-29T00:03:28.989Z,19.80
2022-07-29T00:05:56.888Z,19.70
2022-07-29T00:08:23.886Z,19.70
2022-07-29T00:10:52.320Z,19.60
2022-07-29T00:13:19.316Z,19.60
2022-07-29T00:16:05.071Z,19.60
2022-07-29T00:18:32.821Z,19.60
2022-07-29T00:21:00.165Z,19.60
2022-07-29T00:23:27.153Z,19.60
2022-07-29T00:25:54.065Z,19.50
2022-07-29T00:28:21.059Z,19.50
2022-07-29T00:30:48.090Z,19.50
2022-07-29T00:33:15.089Z,19.40
2022-07-29T00:35:44.754Z,19.40
2022-07-29T00:38:16.437Z,19.40
2022-07-29T00:40:44.193Z,19.40
2022-07-29T00:43:12.863Z,19.40
2022-07-29T00:45:39.869Z,19.40
2022-07-29T00:48:07.669Z,19.40
2022-07-29T00:50:34.596Z,19.30
2022-07-29T00:53:02.207Z,19.30
2022-07-29T00:55:29.881Z,19.30
2022-07-29T00:57:59.185Z,19.30
2022-07-29T01:00:28.297Z,19.30
2022-07-29T01:02:55.332Z,19.30
2022-07-29T01:05:48.028Z,19.30
2022-07-29T01:08:15.186Z,19.20
2022-07-29T01:10:43.742Z,19.30
2022-07-29T01:13:11.602Z,19.30
2022-07-29T01:15:49.804Z,19.30
2022-07-29T01:18:34.760Z,19.30
2022-07-29T01:21:23.625Z,19.30
2022-07-29T01:24:17.216Z,19.20
2022-07-29T01:26:44.508Z,19.20
2022-07-29T01:29:38.891Z,19.10
2022-07-29T01:32:18.115Z,19.10
2022-07-29T01:35:04.487Z,19.00
2022-07-29T01:37:39.336Z,19.00
2022-07-29T01:40:10.730Z,19.10
2022-07-29T01:42:45.293Z,19.10
2022-07-29T01:45:21.007Z,19.00
2022-07-29T01:47:52.186Z,19.00
2022-07-29T01:50:22.390Z,19.10
2022-07-29T01:52:57.662Z,19.00
2022-07-29T01:55:29.336Z,19.00
2022-07-29T01:57:58.765Z,19.00
2022-07-29T02:00:27.369Z,19.00
2022-07-29T02:02:55.553Z,19.00
2022-07-29T02:05:24.439Z,19.10
2022-07-29T02:07:53.882Z,19.10
2022-07-29T02:10:25.865Z,19.10
2022-07-29T02:12:55.739Z,19.10
2022-07-29T02:15:28.331Z,19.10
2022-07-29T02:18:03.215Z,19.10
2022-07-29T02:20:31.688Z,19.10
2022-07-29T02:23:00.949Z,19.10
2022-07-29T02:25:37.296Z,19.00
2022-07-29T02:28:07.796Z,18.90
2022-07-29T02:30:40.170Z,18.80
2022-07-29T02:33:09.049Z,18.80
2022-07-29T02:35:36.498Z,18.70
2022-07-29T02:38:23.002Z,18.70
2022-07-29T02:40:51.339Z,18.60
2022-07-29T02:43:20.253Z,18.50
2022-07-29T02:45:51.820Z,18.50
2022-07-29T02:48:28.665Z,18.50
2022-07-29T02:51:06.067Z,18.40
2022-07-29T02:53:35.656Z,18.40
2022-07-29T02:56:15.731Z,18.30
2022-07-29T02:58:47.998Z,18.30
2022-07-29T03:01:22.837Z,18.30
2022-07-29T03:03:52.865Z,18.40
2022-07-29T03:06:31.135Z,18.40
2022-07-29T03:09:12.775Z,18.40
2022-07-29T03:11:46.032Z,18.40
2022-07-29T03:14:19.271Z,18.40
2022-07-29T03:16:47.817Z,18.40
2022-07-29T03:19:15.615Z,18.50
2022-07-29T03:21:42.568Z,18.50
2022-07-29T03:24:10.683Z,18.50
2022-07-29T03:26:38.265Z,18.40
2022-07-29T03:29:05.299Z,18.30
2022-07-29T03:31:33.482Z,18.20
2022-07-29T03:34:00.797Z,18.10
2022-07-29T03:36:27.785Z,18.10
2022-07-29T03:38:55.724Z,18.20
2022-07-29T03:41:24.214Z,18.20
2022-07-29T03:43:52.732Z,18.30
2022-07-29T03:46:23.336Z,18.30
2022-07-29T03:48:53.761Z,18.30
2022-07-29T03:51:31.565Z,18.30
2022-07-29T03:54:09.698Z,18.30
2022-07-29T03:56:41.802Z,18.30
2022-07-29T03:59:09.494Z,18.40
2022-07-29T04:01:37.486Z,18.50
2022-07-29T04:04:05.811Z,18.70
2022-07-29T04:06:43.369Z,18.90
2022-07-29T04:09:11.397Z,19.10
2022-07-29T04:12:01.556Z,19.30
2022-07-29T04:14:27.370Z,19.50
2022-07-29T04:16:54.313Z,19.80
2022-07-29T04:19:21.286Z,20.10
2022-07-29T04:21:48.312Z,20.20
2022-07-29T04:24:15.784Z,20.40
2022-07-29T04:26:43.228Z,20.60
2022-07-29T04:29:10.381Z,20.80
2022-07-29T04:31:37.427Z,21.00
2022-07-29T04:34:04.498Z,21.10
2022-07-29T04:36:31.503Z,21.30
2022-07-29T04:38:59.012Z,21.50
2022-07-29T04:41:33.072Z,21.70
2022-07-29T04:44:07.062Z,21.90
2022-07-29T04:46:35.418Z,22.10
2022-07-29T04:49:04.035Z,22.30
2022-07-29T04:51:31.409Z,22.40
2022-07-29T04:53:58.436Z,22.70
2022-07-29T04:56:25.495Z,22.80
2022-07-29T04:58:52.476Z,23.00
2022-07-29T05:01:19.713Z,23.10
2022-07-29T05:03:46.943Z,23.20
2022-07-29T05:06:13.891Z,23.40
2022-07-29T05:08:41.850Z,23.50
2022-07-29T05:11:12.014Z,23.60
2022-07-29T05:13:45.410Z,23.80
2022-07-29T05:16:14.353Z,23.90
2022-07-29T05:18:41.687Z,24.00
2022-07-29T05:21:08.682Z,24.00
2022-07-29T05:23:35.716Z,24.10
2022-07-29T05:26:02.774Z,24.20
2022-07-29T05:28:29.862Z,24.30
2022-07-29T05:30:57.445Z,24.50
2022-07-29T05:33:35.975Z,24.70
2022-07-29T05:36:07.778Z,24.70
2022-07-29T05:38:36.709Z,24.90
2022-07-29T05:41:04.114Z,24.90
2022-07-29T05:43:31.542Z,24.90
2022-07-29T05:45:58.614Z,24.70
2022-07-29T05:48:25.726Z,24.70
2022-07-29T05:50:52.758Z,24.80
2022-07-29T05:53:20.782Z,25.00
2022-07-29T05:55:49.245Z,25.30
2022-07-29T05:58:16.224Z,25.50
2022-07-29T06:00:43.308Z,25.60
2022-07-29T06:03:10.280Z,25.70
2022-07-29T06:05:37.196Z,25.90
2022-07-29T06:08:06.799Z,25.90
2022-07-29T06:10:34.062Z,25.80
2022-07-29T06:13:00.991Z,25.90
2022-07-29T06:15:28.201Z,26.10
2022-07-29T06:18:00.640Z,26.00
2022-07-29T06:20:32.842Z,26.10
2022-07-29T06:23:00.576Z,26.20
2022-07-29T06:25:30.445Z,26.20
2022-07-29T06:27:58.427Z,25.90
2022-07-29T06:30:25.551Z,26.00
2022-07-29T06:32:52.904Z,26.10
2022-07-29T06:35:41.068Z,26.30
2022-07-29T06:38:14.906Z,26.40
2022-07-29T06:41:03.801Z,26.40
2022-07-29T06:43:50.302Z,26.50
2022-07-29T06:46:18.899Z,26.70
2022-07-29T06:48:46.891Z,26.90
2022-07-29T06:51:14.571Z,27.00
2022-07-29T06:54:00.494Z,27.20
2022-07-29T06:56:29.563Z,27.30
2022-07-29T06:58:56.712Z,27.40
2022-07-29T07:01:23.985Z,27.60
2022-07-29T07:03:50.999Z,27.60
2022-07-29T07:06:18.110Z,27.70
2022-07-29T07:08:45.037Z,27.70
2022-07-29T07:11:12.695Z,27.70
2022-07-29T07:13:39.725Z,27.90
2022-07-29T07:16:06.978Z,28.00
2022-07-29T07:18:34.505Z,27.90
2022-07-29T07:21:01.816Z,28.00
2022-07-29T07:23:28.906Z,28.20
2022-07-29T07:25:55.985Z,28.40
2022-07-29T07:28:25.095Z,28.40
2022-07-29T07:30:53.028Z,28.30
2022-07-29T07:33:20.560Z,28.50
2022-07-29T07:35:48.210Z,28.40
2022-07-29T07:38:15.891Z,28.30
2022-07-29T07:40:42.924Z,28.50
2022-07-29T07:43:10.005Z,28.10
2022-07-29T07:45:38.680Z,28.30
2022-07-29T07:48:06.266Z,28.40
2022-07-29T07:50:33.327Z,28.40
2022-07-29T07:53:00.660Z,28.50
2022-07-29T07:55:27.720Z,28.70
2022-07-29T07:57:56.097Z,28.90
2022-07-29T08:00:23.858Z,29.10
2022-07-29T08:02:51.535Z,29.00
2022-07-29T08:05:19.166Z,29.10
2022-07-29T08:07:47.652Z,29.10
2022-07-29T08:10:37.497Z,28.90
2022-07-29T08:13:09.093Z,29.30
2022-07-29T08:15:36.411Z,29.40
2022-07-29T08:18:08.434Z,29.80
2022-07-29T08:20:37.487Z,29.80
2022-07-29T08:23:05.768Z,29.80
2022-07-29T08:25:38.514Z,29.50
2022-07-29T08:28:07.375Z,29.70
2022-07-29T08:30:34.618Z,29.90
2022-07-29T08:33:02.026Z,29.90
2022-07-29T08:35:33.332Z,29.90
2022-07-29T08:38:02.256Z,29.90
2022-07-29T08:40:31.838Z,30.00
2022-07-29T08:43:00.816Z,29.70
2022-07-29T08:45:29.277Z,29.50
2022-07-29T08:47:57.000Z,29.50
2022-07-29T08:50:24.265Z,29.60
2022-07-29T08:52:55.419Z,30.00
2022-07-29T08:55:25.136Z,30.20
2022-07-29T08:57:54.591Z,30.20
2022-07-29T09:00:26.272Z,30.20
2022-07-29T09:02:58.529Z,30.30
2022-07-29T09:05:27.218Z,30.30
2022-07-29T09:07:54.546Z,30.40
2022-07-29T09:10:21.781Z,30.50
2022-07-29T09:12:50.240Z,30.70
2022-07-29T09:15:18.670Z,30.30
2022-07-29T09:17:50.042Z,30.20
2022-07-29T09:20:20.007Z,30.20
2022-07-29T09:22:52.179Z,30.10
2022-07-29T09:25:40.591Z,30.30
2022-07-29T09:28:17.810Z,30.30
2022-07-29T09:30:59.518Z,30.20
2022-07-29T09:33:35.753Z,30.10
2022-07-29T09:36:10.795Z,30.20
2022-07-29T09:38:38.491Z,30.30
2022-07-29T09:41:06.873Z,30.50
2022-07-29T09:43:35.108Z,30.50
2022-07-29T09:46:13.139Z,30.70
2022-07-29T09:48:40.491Z,30.60
2022-07-29T09:51:21.327Z,30.40
2022-07-29T09:53:51.411Z,30.80
2022-07-29T09:56:21.353Z,30.60
2022-07-29T09:58:49.037Z,30.80
2022-07-29T10:01:16.731Z,30.80
2022-07-29T10:03:53.911Z,30.80
2022-07-29T10:06:20.869Z,30.80
2022-07-29T10:08:48.423Z,30.90
2022-07-29T10:11:19.138Z,30.90
2022-07-29T10:13:49.315Z,30.80
2022-07-29T10:16:17.971Z,30.90
2022-07-29T10:18:45.786Z,30.90
2022-07-29T10:21:22.437Z,30.90
2022-07-29T10:24:01.676Z,31.10
2022-07-29T10:26:30.614Z,31.20
2022-07-29T10:28:57.951Z,31.10
2022-07-29T10:31:35.175Z,31.20
2022-07-29T10:34:08.133Z,31.20
2022-07-29T10:37:04.230Z,31.40
2022-07-29T10:39:49.690Z,31.50
2022-07-29T10:42:34.359Z,31.40
2022-07-29T10:45:04.365Z,31.10
2022-07-29T10:47:32.037Z,31.30
2022-07-29T10:50:01.699Z,31.40
2022-07-29T10:52:50.422Z,31.20
2022-07-29T10:55:41.922Z,31.50
2022-07-29T10:58:16.220Z,31.60
2022-07-29T11:00:47.132Z,31.80
2022-07-29T11:03:49.624Z,31.70
2022-07-29T11:06:26.140Z,31.70
2022-07-29T11:09:18.368Z,31.80
2022-07-29T11:11:51.637Z,31.90
2022-07-29T11:14:39.592Z,32.00
2022-07-29T11:17:09.093Z,32.20
2022-07-29T11:19:40.175Z,31.80
2022-07-29T11:22:11.589Z,31.80
2022-07-29T11:24:50.225Z,31.70
2022-07-29T11:27:21.258Z,31.80
2022-07-29T11:29:50.882Z,31.70
2022-07-29T11:32:22.889Z,31.90
2022-07-29T11:35:17.414Z,32.00
2022-07-29T11:37:52.305Z,32.00
2022-07-29T11:40:23.165Z,31.80
2022-07-29T11:42:52.131Z,32.00
2022-07-29T11:45:56.977Z,32.00
2022-07-29T11:48:28.060Z,32.20
2022-07-29T11:50:58.496Z,32.30
2022-07-29T11:53:29.035Z,32.40
2022-07-29T11:56:01.426Z,32.20
2022-07-29T11:58:30.282Z,32.20
2022-07-29T12:00:58.652Z,32.00
2022-07-29T12:03:34.228Z,32.30
2022-07-29T12:06:13.534Z,32.40
2022-07-29T12:08:45.046Z,32.30
2022-07-29T12:11:21.644Z,32.50
2022-07-29T12:13:49.904Z,32.50
2022-07-29T12:16:29.238Z,32.50
2022-07-29T12:19:02.366Z,32.50
2022-07-29T12:21:53.832Z,32.70
2022-07-29T12:24:27.460Z,32.50
2022-07-29T12:26:56.818Z,32.80
2022-07-29T12:29:35.620Z,32.60
2022-07-29T12:32:04.889Z,32.30
2022-07-29T12:34:32.586Z,32.20
2022-07-29T12:36:59.830Z,32.30
2022-07-29T12:39:29.073Z,32.60
2022-07-29T12:42:04.507Z,32.70
2022-07-29T12:44:51.539Z,32.80
2022-07-29T12:47:19.670Z,32.80
2022-07-29T12:49:47.935Z,32.70
2022-07-29T12:52:28.445Z,32.40
2022-07-29T12:54:55.994Z,32.30
2022-07-29T12:57:23.344Z,32.30
2022-07-29T13:00:05.812Z,32.60
2022-07-29T13:02:32.856Z,32.70
2022-07-29T13:05:01.291Z,32.70
2022-07-29T13:07:54.073Z,32.60
2022-07-29T13:10:24.047Z,32.60
2022-07-29T13:13:06.953Z,32.80
2022-07-29T13:15:34.707Z,32.90
2022-07-29T13:18:01.788Z,33.00
2022-07-29T13:20:33.560Z,32.80
2022-07-29T13:23:01.760Z,33.00
2022-07-29T13:25:34.069Z,32.80
2022-07-29T13:28:01.238Z,32.80
2022-07-29T13:30:28.546Z,32.90
2022-07-29T13:32:56.213Z,32.90
2022-07-29T13:35:23.233Z,33.00
2022-07-29T13:37:50.231Z,33.10
2022-07-29T13:40:19.047Z,32.80
2022-07-29T13:42:46.110Z,32.80
2022-07-29T13:45:14.631Z,32.80
2022-07-29T13:47:46.002Z,32.70
2022-07-29T13:50:16.369Z,32.80
2022-07-29T13:52:44.041Z,32.90
2022-07-29T13:55:11.107Z,32.90
2022-07-29T13:57:38.321Z,33.00
2022-07-29T14:00:06.287Z,33.00
2022-07-29T14:02:34.745Z,33.00
2022-07-29T14:05:06.170Z,32.90
2022-07-29T14:07:35.508Z,32.90
2022-07-29T14:10:02.717Z,33.10
2022-07-29T14:12:29.956Z,32.90
2022-07-29T14:14:57.122Z,33.20
2022-07-29T14:17:24.367Z,33.40
2022-07-29T14:19:51.594Z,33.50
2022-07-29T14:22:20.048Z,33.40
2022-07-29T14:24:49.940Z,33.30
2022-07-29T14:27:16.966Z,33.30
2022-07-29T14:29:44.037Z,33.20
2022-07-29T14:32:11.698Z,33.00
2022-07-29T14:34:39.370Z,33.00
2022-07-29T14:37:07.686Z,33.10
2022-07-29T14:39:42.465Z,33.30
2022-07-29T14:42:12.640Z,33.60
2022-07-29T14:44:41.487Z,33.30
2022-07-29T14:47:08.745Z,33.30
2022-07-29T14:49:36.313Z,33.30
2022-07-29T14:52:03.485Z,33.40
2022-07-29T14:54:30.506Z,33.50
2022-07-29T14:56:58.750Z,33.50
2022-07-29T14:59:26.632Z,33.40
2022-07-29T15:01:53.917Z,33.30
2022-07-29T15:04:21.243Z,34.30
2022-07-29T15:06:48.327Z,36.10
2022-07-29T15:09:15.283Z,38.00
2022-07-29T15:11:42.290Z,39.30
2022-07-29T15:14:09.384Z,39.80
2022-07-29T15:16:43.989Z,40.40
2022-07-29T15:19:13.731Z,40.70
2022-07-29T15:21:41.369Z,39.40
2022-07-29T15:24:08.829Z,39.90
2022-07-29T15:26:35.802Z,40.10
2022-07-29T15:29:03.848Z,39.80
2022-07-29T15:31:30.937Z,39.80
2022-07-29T15:34:01.199Z,39.30
2022-07-29T15:39:18.693Z,38.00
2022-07-29T15:41:45.798Z,37.50
2022-07-29T15:44:12.737Z,38.20
2022-07-29T15:46:58.843Z,38.30
2022-07-29T15:49:47.464Z,38.50
2022-07-29T15:52:25.427Z,37.20
2022-07-29T15:54:55.169Z,36.50
2022-07-29T15:57:23.325Z,36.40
2022-07-29T15:59:50.562Z,35.60
2022-07-29T16:02:17.893Z,35.00
2022-07-29T16:04:44.882Z,34.40
2022-07-29T16:07:11.821Z,34.10
2022-07-29T16:09:38.829Z,33.80
2022-07-29T16:12:15.013Z,33.60
2022-07-29T16:14:43.689Z,33.40
2022-07-29T16:17:14.682Z,33.30
2022-07-29T16:19:42.823Z,33.40
2022-07-29T16:22:09.838Z,33.20
2022-07-29T16:24:37.177Z,33.00
2022-07-29T16:27:04.448Z,32.90
2022-07-29T16:29:31.373Z,32.70
2022-07-29T16:31:58.447Z,32.50
2022-07-29T16:34:25.488Z,32.40
2022-07-29T16:36:52.457Z,32.30
2022-07-29T16:39:19.458Z,32.10
2022-07-29T16:41:46.471Z,32.30
2022-07-29T16:44:13.454Z,32.30
2022-07-29T16:46:41.488Z,32.20
2022-07-29T16:49:08.689Z,32.00
2022-07-29T16:51:35.744Z,31.90
2022-07-29T16:54:02.693Z,31.90
2022-07-29T16:56:29.746Z,32.00
2022-07-29T16:58:58.458Z,32.20
2022-07-29T17:01:25.640Z,32.10
2022-07-29T17:04:07.981Z,31.80
2022-07-29T17:06:36.360Z,31.80
2022-07-29T17:09:05.895Z,31.80
2022-07-29T17:11:53.799Z,31.80
2022-07-29T17:14:24.093Z,31.60
2022-07-29T17:17:00.962Z,31.50
2022-07-29T17:19:31.484Z,31.40
2022-07-29T17:22:06.420Z,31.50
2022-07-29T17:24:34.234Z,31.40
2022-07-29T17:27:01.759Z,31.40
2022-07-29T17:29:28.703Z,31.30
2022-07-29T17:31:55.704Z,31.10
2022-07-29T17:34:22.680Z,31.00
2022-07-29T17:36:49.726Z,30.90
2022-07-29T17:39:16.987Z,30.80
2022-07-29T17:41:46.896Z,30.70
2022-07-29T17:44:13.888Z,30.60
2022-07-29T17:46:41.525Z,30.50
2022-07-29T17:49:08.583Z,30.40
2022-07-29T17:51:35.567Z,30.30
2022-07-29T17:54:02.621Z,30.10
2022-07-29T17:56:29.555Z,30.00
2022-07-29T17:58:57.039Z,29.90
2022-07-29T18:01:24.035Z,30.00
2022-07-29T18:03:51.033Z,29.90
2022-07-29T18:06:18.206Z,29.80
2022-07-29T18:08:51.002Z,29.80
2022-07-29T18:11:18.079Z,29.60
2022-07-29T18:13:45.092Z,29.50
2022-07-29T18:16:12.131Z,29.40
2022-07-29T18:18:39.074Z,29.30
2022-07-29T18:21:06.308Z,29.20
2022-07-29T18:23:33.658Z,29.10
2022-07-29T18:26:00.728Z,29.00
2022-07-29T18:28:27.765Z,28.90
2022-07-29T18:30:54.921Z,28.80
2022-07-29T18:33:22.685Z,28.70
2022-07-29T18:35:52.453Z,28.60
2022-07-29T18:38:37.874Z,28.40
2022-07-29T18:41:04.889Z,28.30
2022-07-29T18:43:31.804Z,28.20
2022-07-29T18:45:58.825Z,28.10
2022-07-29T18:48:25.774Z,28.10
2022-07-29T18:50:52.738Z,28.00
2022-07-29T18:53:19.698Z,28.00
2022-07-29T18:55:46.706Z,27.90
2022-07-29T18:58:13.724Z,27.80
2022-07-29T19:00:40.706Z,27.70
2022-07-29T19:03:08.779Z,27.60
2022-07-29T19:05:35.896Z,27.50
2022-07-29T19:08:02.909Z,27.40
2022-07-29T19:10:30.592Z,27.40
2022-07-29T19:12:57.996Z,27.30
2022-07-29T19:15:25.198Z,27.20
2022-07-29T19:17:52.577Z,27.10
2022-07-29T19:20:19.614Z,27.10
2022-07-29T19:22:46.618Z,27.00
2022-07-29T19:25:13.743Z,27.00
2022-07-29T19:27:42.201Z,26.90
2022-07-29T19:30:09.731Z,26.80
2022-07-29T19:32:37.744Z,26.70
2022-07-29T19:35:24.221Z,26.60
2022-07-29T19:37:51.993Z,26.60
2022-07-29T19:40:19.189Z,26.40
2022-07-29T19:42:46.180Z,26.40
2022-07-29T19:45:13.151Z,26.30
2022-07-29T19:47:40.354Z,26.20
2022-07-29T19:50:08.031Z,26.20
2022-07-29T19:52:36.532Z,26.20
2022-07-29T19:55:07.544Z,26.10
2022-07-29T19:57:37.891Z,26.00
2022-07-29T20:00:10.097Z,26.00
2022-07-29T20:02:40.306Z,26.00
2022-07-29T20:05:08.437Z,25.90
2022-07-29T20:07:35.897Z,25.90
2022-07-29T20:10:03.645Z,25.80
2022-07-29T20:12:30.610Z,25.70
2022-07-29T20:14:57.896Z,25.70
2022-07-29T20:17:25.838Z,25.60
2022-07-29T20:19:53.128Z,25.60
2022-07-29T20:22:21.537Z,25.50
2022-07-29T20:24:48.926Z,25.50
2022-07-29T20:27:16.126Z,25.40
2022-07-29T20:29:43.259Z,25.40
2022-07-29T20:32:12.046Z,25.40
2022-07-29T20:34:41.375Z,25.30
2022-07-29T20:37:13.482Z,25.30
2022-07-29T20:39:42.871Z,25.30
2022-07-29T20:42:09.891Z,25.20
2022-07-29T20:44:36.998Z,25.20
2022-07-29T20:47:04.117Z,25.20
2022-07-29T20:49:31.095Z,25.10
2022-07-29T20:51:58.506Z,25.10
2022-07-29T20:54:25.536Z,25.10
2022-07-29T20:56:53.282Z,25.00
2022-07-29T20:59:20.334Z,25.00
2022-07-29T21:01:47.311Z,25.00
2022-07-29T21:04:14.436Z,24.90
2022-07-29T21:06:41.348Z,24.90
2022-07-29T21:09:08.305Z,24.80
2022-07-29T21:11:44.508Z,24.70
2022-07-29T21:14:27.484Z,24.80
2022-07-29T21:16:54.712Z,24.70
2022-07-29T21:19:21.676Z,24.60
2022-07-29T21:21:48.608Z,24.60
2022-07-29T21:24:15.631Z,24.60
2022-07-29T21:26:47.297Z,24.60
2022-07-29T21:29:21.628Z,24.50
2022-07-29T21:31:48.683Z,24.50
2022-07-29T21:34:15.868Z,24.50
2022-07-29T21:36:48.291Z,24.40
2022-07-29T21:39:15.917Z,24.40
2022-07-29T21:41:42.841Z,24.40
2022-07-29T21:44:09.806Z,24.40
2022-07-29T21:46:36.808Z,24.40
2022-07-29T21:49:03.949Z,24.30
2022-07-29T21:51:31.042Z,24.30
2022-07-29T21:53:58.078Z,24.30
2022-07-29T21:56:27.713Z,24.30
2022-07-29T21:58:55.284Z,24.20
2022-07-29T22:01:22.549Z,24.20
2022-07-29T22:03:49.654Z,24.20
2022-07-29T22:06:18.139Z,24.10
2022-07-29T22:08:46.181Z,24.10
2022-07-29T22:11:13.412Z,24.10
2022-07-29T22:13:40.558Z,24.10
2022-07-29T22:16:09.620Z,24.10
2022-07-29T22:18:36.554Z,24.10
2022-07-29T22:21:03.571Z,24.10
2022-07-29T22:23:30.632Z,24.10
2022-07-29T22:25:57.630Z,24.10
2022-07-29T22:28:24.576Z,24.00
2022-07-29T22:30:51.839Z,24.00
2022-07-29T22:33:18.839Z,24.10
2022-07-29T22:35:48.921Z,24.00
2022-07-29T22:38:17.394Z,24.00
2022-07-29T22:41:06.786Z,24.00
2022-07-29T22:43:38.399Z,23.90
2022-07-29T22:46:07.759Z,23.90
2022-07-29T22:48:34.728Z,23.90
2022-07-29T22:51:01.689Z,23.80
2022-07-29T22:53:28.613Z,23.80
2022-07-29T22:55:55.774Z,23.80
2022-07-29T22:58:22.708Z,23.80
2022-07-29T23:00:49.622Z,23.70
2022-07-29T23:03:16.700Z,23.60
2022-07-29T23:05:43.692Z,23.60
2022-07-29T23:08:10.697Z,23.60
2022-07-29T23:10:37.633Z,23.60
2022-07-29T23:13:04.591Z,23.60
2022-07-29T23:15:31.554Z,23.50
2022-07-29T23:17:58.977Z,23.40
2022-07-29T23:20:25.989Z,23.40
2022-07-29T23:22:53.006Z,23.30
2022-07-29T23:25:20.149Z,23.30
2022-07-29T23:27:47.107Z,23.30
2022-07-29T23:30:14.232Z,23.30
2022-07-29T23:32:41.536Z,23.20
2022-07-29T23:35:09.068Z,23.20
2022-07-29T23:37:36.736Z,23.10
2022-07-29T23:40:05.124Z,23.10
2022-07-29T23:42:32.094Z,23.10
2022-07-29T23:44:59.049Z,23.00
2022-07-29T23:47:26.055Z,23.00
2022-07-29T23:49:53.050Z,23.00
2022-07-29T23:52:20.000Z,22.90
2022-07-29T23:54:47.099Z,22.90
2022-07-29T23:57:14.345Z,22.90
2022-07-29T23:59:41.351Z,22.80
